sensor_id;sensor_type;location;lat;lon;timestamp;pressure;altitude;pressure_sealevel;temperature;humidity
21449;BME280;10885;52.830;13.788;2023-08-30T04:04:30;100330.91;;;14.86;100.00
21449;BME280;10885;52.830;13.788;2023-08-30T04:09:33;100314.66;;;14.87;100.00
21449;BME280;10885;52.830;13.788;2023-08-30T04:14:36;100321.53;;;14.88;100.00
21449;BME280;10885;52.830;13.788;2023-08-30T04:19:39;100318.09;;;14.88;100.00
21449;BME280;10885;52.830;13.788;2023-08-30T04:24:43;100309.56;;;14.89;100.00
21449;BME280;10885;52.830;13.788;2023-08-30T04:29:46;100311.22;;;14.88;100.00
21449;BME280;10885;52.830;13.788;2023-08-30T04:34:50;100305.28;;;14.89;100.00
21449;BME280;10885;52.830;13.788;2023-08-30T04:39:52;100321.75;;;14.93;100.00
21449;BME280;10885;52.830;13.788;2023-08-30T04:44:56;100320.03;;;14.93;100.00
21449;BME280;10885;52.830;13.788;2023-08-30T04:50:03;100318.41;;;14.96;100.00
21449;BME280;10885;52.830;13.788;2023-08-30T04:55:08;100325.38;;;14.98;100.00
21449;BME280;10885;52.830;13.788;2023-08-30T05:00:12;100332.41;;;15.02;100.00
21449;BME280;10885;52.830;13.788;2023-08-30T05:05:15;100328.16;;;15.03;100.00
21449;BME280;10885;52.830;13.788;2023-08-30T05:10:18;100328.31;;;15.07;100.00
21449;BME280;10885;52.830;13.788;2023-08-30T05:15:21;100325.09;;;15.13;100.00
21449;BME280;10885;52.830;13.788;2023-08-30T05:20:24;100319.06;;;15.12;100.00
21449;BME280;10885;52.830;13.788;2023-08-30T05:25:26;100322.63;;;15.16;100.00
21449;BME280;10885;52.830;13.788;2023-08-30T05:30:29;100320.28;;;15.22;100.00
21449;BME280;10885;52.830;13.788;2023-08-30T05:35:45;100325.63;;;15.27;100.00
21449;BME280;10885;52.830;13.788;2023-08-30T05:41:03;100325.94;;;15.35;100.00
21449;BME280;10885;52.830;13.788;2023-08-30T05:46:06;100327.66;;;15.36;100.00
21449;BME280;10885;52.830;13.788;2023-08-30T05:51:15;100331.09;;;15.35;100.00
21449;BME280;10885;52.830;13.788;2023-08-30T05:56:17;100343.13;;;15.36;100.00
21449;BME280;10885;52.830;13.788;2023-08-30T06:01:20;100339.63;;;15.33;100.00
21449;BME280;10885;52.830;13.788;2023-08-30T06:06:23;100340.78;;;15.42;100.00
21449;BME280;10885;52.830;13.788;2023-08-30T06:11:26;100326.25;;;15.44;100.00
21449;BME280;10885;52.830;13.788;2023-08-30T06:16:28;100324.03;;;15.53;99.56
21449;BME280;10885;52.830;13.788;2023-08-30T06:21:31;100331.31;;;15.63;99.04
21449;BME280;10885;52.830;13.788;2023-08-30T06:26:34;100329.81;;;15.68;98.37
21449;BME280;10885;52.830;13.788;2023-08-30T06:31:36;100333.19;;;15.67;98.28
21449;BME280;10885;52.830;13.788;2023-08-30T06:36:39;100326.44;;;15.71;98.36
21449;BME280;10885;52.830;13.788;2023-08-30T06:41:42;100332.75;;;15.79;98.22
21449;BME280;10885;52.830;13.788;2023-08-30T06:46:48;100328.97;;;15.94;97.88
21449;BME280;10885;52.830;13.788;2023-08-30T06:51:51;100327.19;;;16.17;96.94
21449;BME280;10885;52.830;13.788;2023-08-30T06:56:58;100332.19;;;16.36;96.22
21449;BME280;10885;52.830;13.788;2023-08-30T07:02:01;100334.19;;;16.45;95.23
21449;BME280;10885;52.830;13.788;2023-08-30T07:07:04;100323.91;;;16.46;95.09
21449;BME280;10885;52.830;13.788;2023-08-30T07:12:07;100334.53;;;16.56;94.01
21449;BME280;10885;52.830;13.788;2023-08-30T07:17:10;100331.25;;;16.60;94.39
21449;BME280;10885;52.830;13.788;2023-08-30T19:22:18;100204.78;;;15.12;87.28
21449;BME280;10885;52.830;13.788;2023-08-30T19:27:23;100211.25;;;15.01;86.98
21449;BME280;10885;52.830;13.788;2023-08-30T19:32:26;100219.41;;;14.90;86.95
21449;BME280;10885;52.830;13.788;2023-08-30T19:37:28;100213.09;;;14.82;86.95
21449;BME280;10885;52.830;13.788;2023-08-30T19:42:32;100217.03;;;14.72;87.79
21449;BME280;10885;52.830;13.788;2023-08-30T19:47:35;100205.78;;;14.70;87.55
21449;BME280;10885;52.830;13.788;2023-08-30T19:52:38;100220.19;;;14.65;88.02
21449;BME280;10885;52.830;13.788;2023-08-30T19:57:40;100220.06;;;14.62;88.17
21449;BME280;10885;52.830;13.788;2023-08-30T20:02:45;100214.75;;;14.58;88.23
21449;BME280;10885;52.830;13.788;2023-08-30T20:07:48;100205.63;;;14.45;88.49
21449;BME280;10885;52.830;13.788;2023-08-30T20:12:51;100207.34;;;14.44;88.83
21449;BME280;10885;52.830;13.788;2023-08-30T20:17:55;100210.69;;;14.42;88.76
21449;BME280;10885;52.830;13.788;2023-08-30T20:22:59;100218.41;;;14.42;88.30
21449;BME280;10885;52.830;13.788;2023-08-30T20:28:02;100213.81;;;14.35;87.79
21449;BME280;10885;52.830;13.788;2023-08-30T20:33:05;100206.50;;;14.24;89.28
21449;BME280;10885;52.830;13.788;2023-08-30T20:38:08;100201.88;;;14.16;89.89
21449;BME280;10885;52.830;13.788;2023-08-30T20:43:12;100196.59;;;14.12;89.46
21449;BME280;10885;52.830;13.788;2023-08-30T20:48:15;100186.19;;;14.09;89.43
21449;BME280;10885;52.830;13.788;2023-08-30T20:53:18;100178.34;;;14.06;89.44
21449;BME280;10885;52.830;13.788;2023-08-30T20:58:21;100179.97;;;14.04;90.20
21449;BME280;10885;52.830;13.788;2023-08-30T21:03:24;100179.91;;;14.03;90.32
21449;BME280;10885;52.830;13.788;2023-08-30T21:08:27;100173.88;;;14.02;90.21
21449;BME280;10885;52.830;13.788;2023-08-30T21:13:30;100174.72;;;14.01;90.58
21449;BME280;10885;52.830;13.788;2023-08-30T21:18:32;100178.00;;;13.99;89.89
21449;BME280;10885;52.830;13.788;2023-08-30T21:23:35;100170.88;;;13.91;90.08
21449;BME280;10885;52.830;13.788;2023-08-30T21:28:38;100166.59;;;13.92;90.44
21449;BME280;10885;52.830;13.788;2023-08-30T21:33:40;100167.47;;;13.92;90.30
21449;BME280;10885;52.830;13.788;2023-08-30T21:38:43;100175.13;;;13.91;90.71
21449;BME280;10885;52.830;13.788;2023-08-30T21:43:46;100171.59;;;13.89;90.94
21449;BME280;10885;52.830;13.788;2023-08-30T21:48:48;100169.81;;;13.86;91.07
21449;BME280;10885;52.830;13.788;2023-08-30T21:53:51;100162.84;;;13.84;91.13
